Silver, Texas
Current Conditions -  °F | °C
As of 8:35 PM on Saturday 25 Oct 2014 (Local Time) from KSWW Reporting Station
Clear Clear  
Wind Chill: 72°   Ceiling: Unl
Heat Index: 72°   Visibility: 10mi
Dew Point: 49°   Wind: 8mph
Humidity: 44%   Direction: 160°SSE
Pressure: 30.12"   Gusts: NA
Location:  32.07°N, 100.68°W
Report Text: KSWW 260135Z AUTO 16007KT 10SM CLR 22/09 A3012 RMK AO2 T02220093
Loading
Personal Weather Stations






























Interactive Weather Map New forecast layout! Learn more

10-Day Weather Forecast

Advertisements
Track Severe Weather on mobile